This is the latest recevied weather packets stored in our database for station/object W3TMB. If no packets are shown the sender has not sent any weather packets the latest 1 day(s).
| Time | Temp. | Humidity | Pressure | Rain* | Wind** | Luminosity | Snow |
|---|---|---|---|---|---|---|---|
| 1778069702 | 13.89° C | 99% | 1005.1 hPa | 3.56 mm | - | 14 W/m² | - |
| 1778069096 | 13.89° C | 99% | 1005.2 hPa | 3.05 mm | - | 16 W/m² | - |
| 1778068793 | 13.89° C | 99% | 1004.8 hPa | 3.05 mm | - | 13 W/m² | - |
| 1778068491 | 13.33° C | 99% | 1005.3 hPa | 1.27 mm | - | 14 W/m² | - |
| 1778067585 | 13.33° C | 99% | 1004.4 hPa | 1.78 mm | - | 10 W/m² | - |
| 1778065768 | 13.89° C | 99% | 1004.5 hPa | 0 mm | - | 6 W/m² | - |
| 1778065162 | 13.89° C | 99% | 1004.4 hPa | 1.78 mm | - | 6 W/m² | - |
| 1778064556 | 13.89° C | 99% | 1004.5 hPa | 0 mm | - | 5 W/m² | - |
| 1778064254 | 13.89° C | 99% | 1004.7 hPa | 1.27 mm | - | 5 W/m² | - |
| 1778063952 | 13.89° C | 99% | 1004.6 hPa | 1.27 mm | - | 3 W/m² | - |
| 1778063346 | 13.89° C | 99% | 1004.1 hPa | 0 mm | - | 2 W/m² | - |
| 1778063044 | 13.89° C | 99% | 1003.9 hPa | 0 mm | - | 1 W/m² | - |
| 1778062741 | 13.89° C | 99% | 1004.1 hPa | 1.78 mm | - | 0 W/m² | - |
| 1778062437 | 13.89° C | 99% | 1004.3 hPa | 1.78 mm | - | 0 W/m² | - |
| 1778061833 | 13.89° C | 99% | 1004.3 hPa | 0 mm | - | 0 W/m² | - |
| 1778060018 | 13.33° C | 98% | 1004.2 hPa | 0 mm | - | 0 W/m² | - |
| 1778059716 | 13.33° C | 98% | 1004.4 hPa | 0 mm | - | 0 W/m² | - |
| 1778059414 | 13.89° C | 98% | 1004.3 hPa | 0 mm | - | 0 W/m² | - |
| 1778059110 | 13.89° C | 98% | 1004.3 hPa | 0 mm | - | 0 W/m² | - |
| 1778058808 | 13.89° C | 98% | 1004.4 hPa | 0 mm | - | 0 W/m² | - |
| 1778057899 | 13.89° C | 97% | 1004.4 hPa | 0 mm | - | 0 W/m² | - |
| 1778056383 | 13.89° C | 96% | 1004.6 hPa | 0 mm | - | 0 W/m² | - |
| 1778055776 | 13.89° C | 96% | 1004.4 hPa | 0 mm | - | 0 W/m² | - |
| 1778055171 | 13.89° C | 96% | 1004.4 hPa | 0 mm | - | 0 W/m² | - |
| 1778054869 | 13.89° C | 95% | 1004.7 hPa | 0 mm | - | 0 W/m² | - |
* Rain latest hour (hover to see other rain measurements)
** Current wind speed in m/s (hover to see current wind gust speed)